sensor_id;sensor_type;location;lat;lon;timestamp;temperature;humidity
38866;DHT22;62686;48.984;8.394;2023-08-20T00:31:46;21.40;99.90
38866;DHT22;62686;48.984;8.394;2023-08-20T01:05:15;21.00;99.90
38866;DHT22;62686;48.984;8.394;2023-08-20T01:08:02;20.90;99.90
38866;DHT22;62686;48.984;8.394;2023-08-20T01:10:39;20.80;99.90
38866;DHT22;62686;48.984;8.394;2023-08-20T01:13:07;20.80;99.90
38866;DHT22;62686;48.984;8.394;2023-08-20T01:15:36;20.70;99.90
38866;DHT22;62686;48.984;8.394;2023-08-20T01:18:05;20.70;99.90
38866;DHT22;62686;48.984;8.394;2023-08-20T01:20:39;20.70;99.90
38866;DHT22;62686;48.984;8.394;2023-08-20T01:23:32;20.70;99.90
38866;DHT22;62686;48.984;8.394;2023-08-20T01:26:13;20.60;99.90
38866;DHT22;62686;48.984;8.394;2023-08-20T01:28:48;20.60;99.90
38866;DHT22;62686;48.984;8.394;2023-08-20T01:31:17;20.60;99.90
38866;DHT22;62686;48.984;8.394;2023-08-20T01:33:46;20.50;99.90
38866;DHT22;62686;48.984;8.394;2023-08-20T01:36:14;20.60;99.90
38866;DHT22;62686;48.984;8.394;2023-08-20T01:38:45;20.50;99.90
38866;DHT22;62686;48.984;8.394;2023-08-20T01:41:13;20.50;99.90
38866;DHT22;62686;48.984;8.394;2023-08-20T01:43:41;20.50;99.90
38866;DHT22;62686;48.984;8.394;2023-08-20T01:46:10;20.40;99.90
38866;DHT22;62686;48.984;8.394;2023-08-20T01:48:39;20.40;99.90
38866;DHT22;62686;48.984;8.394;2023-08-20T01:51:07;20.40;99.90
38866;DHT22;62686;48.984;8.394;2023-08-20T01:53:36;20.40;99.90
38866;DHT22;62686;48.984;8.394;2023-08-20T01:56:04;20.40;99.90
38866;DHT22;62686;48.984;8.394;2023-08-20T01:58:38;20.30;99.90
38866;DHT22;62686;48.984;8.394;2023-08-20T02:01:06;20.30;99.90
38866;DHT22;62686;48.984;8.394;2023-08-20T02:03:36;20.30;99.90
38866;DHT22;62686;48.984;8.394;2023-08-20T02:06:05;20.20;99.90
38866;DHT22;62686;48.984;8.394;2023-08-20T02:08:33;20.20;99.90
38866;DHT22;62686;48.984;8.394;2023-08-20T02:11:02;20.20;99.90
38866;DHT22;62686;48.984;8.394;2023-08-20T02:13:31;20.10;99.90
38866;DHT22;62686;48.984;8.394;2023-08-20T02:16:00;20.10;99.90
38866;DHT22;62686;48.984;8.394;2023-08-20T02:18:29;20.10;99.90
38866;DHT22;62686;48.984;8.394;2023-08-20T02:20:59;20.10;99.90
38866;DHT22;62686;48.984;8.394;2023-08-20T02:23:27;20.10;99.90
38866;DHT22;62686;48.984;8.394;2023-08-20T02:25:55;20.00;99.90
38866;DHT22;62686;48.984;8.394;2023-08-20T02:28:24;20.00;99.90
38866;DHT22;62686;48.984;8.394;2023-08-20T02:30:53;19.90;99.90
38866;DHT22;62686;48.984;8.394;2023-08-20T02:33:21;19.90;99.90
38866;DHT22;62686;48.984;8.394;2023-08-20T02:35:50;19.80;99.90
38866;DHT22;62686;48.984;8.394;2023-08-20T02:38:19;19.80;99.90
38866;DHT22;62686;48.984;8.394;2023-08-20T02:40:47;19.80;99.90
38866;DHT22;62686;48.984;8.394;2023-08-20T02:43:15;19.80;99.90
38866;DHT22;62686;48.984;8.394;2023-08-20T02:45:43;19.70;99.90
38866;DHT22;62686;48.984;8.394;2023-08-20T02:48:13;19.70;99.90
38866;DHT22;62686;48.984;8.394;2023-08-20T02:50:41;19.70;99.90
38866;DHT22;62686;48.984;8.394;2023-08-20T03:01:20;19.60;99.90
38866;DHT22;62686;48.984;8.394;2023-08-20T03:03:49;19.60;99.90
38866;DHT22;62686;48.984;8.394;2023-08-20T03:08:58;19.60;99.90
38866;DHT22;62686;48.984;8.394;2023-08-20T03:11:26;19.60;99.90
38866;DHT22;62686;48.984;8.394;2023-08-20T03:22:10;19.60;99.90
38866;DHT22;62686;48.984;8.394;2023-08-20T03:24:38;19.60;99.90
38866;DHT22;62686;48.984;8.394;2023-08-20T03:27:06;19.60;99.90
38866;DHT22;62686;48.984;8.394;2023-08-20T03:29:35;19.50;99.90
38866;DHT22;62686;48.984;8.394;2023-08-20T03:32:04;19.50;99.90
38866;DHT22;62686;48.984;8.394;2023-08-20T03:34:32;19.40;99.90
38866;DHT22;62686;48.984;8.394;2023-08-20T03:37:00;19.50;99.90
38866;DHT22;62686;48.984;8.394;2023-08-20T03:39:30;19.50;99.90
38866;DHT22;62686;48.984;8.394;2023-08-20T03:47:29;19.50;99.90
38866;DHT22;62686;48.984;8.394;2023-08-20T03:49:57;19.50;99.90
38866;DHT22;62686;48.984;8.394;2023-08-20T03:52:26;19.50;99.90
38866;DHT22;62686;48.984;8.394;2023-08-20T03:54:56;19.40;99.90
38866;DHT22;62686;48.984;8.394;2023-08-20T03:57:24;19.40;99.90
38866;DHT22;62686;48.984;8.394;2023-08-20T03:59:52;19.40;99.90
38866;DHT22;62686;48.984;8.394;2023-08-20T04:02:20;19.40;99.90
38866;DHT22;62686;48.984;8.394;2023-08-20T04:04:48;19.40;99.90
38866;DHT22;62686;48.984;8.394;2023-08-20T04:07:18;19.50;99.90
38866;DHT22;62686;48.984;8.394;2023-08-20T04:09:46;19.50;99.90
38866;DHT22;62686;48.984;8.394;2023-08-20T04:12:15;19.50;99.90
38866;DHT22;62686;48.984;8.394;2023-08-20T04:14:43;19.50;99.90
38866;DHT22;62686;48.984;8.394;2023-08-20T04:17:11;19.50;99.90
38866;DHT22;62686;48.984;8.394;2023-08-20T04:19:39;19.50;99.90
38866;DHT22;62686;48.984;8.394;2023-08-20T04:22:08;19.60;99.90
38866;DHT22;62686;48.984;8.394;2023-08-20T04:24:36;19.60;99.90
38866;DHT22;62686;48.984;8.394;2023-08-20T04:27:04;19.70;99.90
38866;DHT22;62686;48.984;8.394;2023-08-20T04:29:34;19.70;99.90
38866;DHT22;62686;48.984;8.394;2023-08-20T04:32:02;19.70;99.90
38866;DHT22;62686;48.984;8.394;2023-08-20T04:34:30;19.70;99.90
38866;DHT22;62686;48.984;8.394;2023-08-20T04:36:58;19.70;99.90
38866;DHT22;62686;48.984;8.394;2023-08-20T04:39:26;19.70;99.90
38866;DHT22;62686;48.984;8.394;2023-08-20T04:41:55;19.80;99.90
38866;DHT22;62686;48.984;8.394;2023-08-20T04:44:24;19.80;99.90
38866;DHT22;62686;48.984;8.394;2023-08-20T04:46:54;19.80;99.90
38866;DHT22;62686;48.984;8.394;2023-08-20T04:49:22;19.90;99.90
38866;DHT22;62686;48.984;8.394;2023-08-20T04:51:52;19.90;99.90
38866;DHT22;62686;48.984;8.394;2023-08-20T04:54:21;19.90;99.90
38866;DHT22;62686;48.984;8.394;2023-08-20T04:56:49;19.90;99.90
38866;DHT22;62686;48.984;8.394;2023-08-20T04:59:17;20.00;99.90
38866;DHT22;62686;48.984;8.394;2023-08-20T05:01:45;20.00;99.90
38866;DHT22;62686;48.984;8.394;2023-08-20T05:04:14;20.00;99.90
38866;DHT22;62686;48.984;8.394;2023-08-20T05:06:42;20.10;99.90
38866;DHT22;62686;48.984;8.394;2023-08-20T05:09:11;20.20;99.90
38866;DHT22;62686;48.984;8.394;2023-08-20T05:11:39;20.20;99.90
38866;DHT22;62686;48.984;8.394;2023-08-20T05:14:07;20.30;99.90
38866;DHT22;62686;48.984;8.394;2023-08-20T05:16:35;20.40;99.90
38866;DHT22;62686;48.984;8.394;2023-08-20T05:19:03;20.50;99.90
38866;DHT22;62686;48.984;8.394;2023-08-20T05:21:33;20.70;99.90
38866;DHT22;62686;48.984;8.394;2023-08-20T05:24:01;20.80;99.90
38866;DHT22;62686;48.984;8.394;2023-08-20T05:26:30;20.90;99.90
38866;DHT22;62686;48.984;8.394;2023-08-20T05:28:58;21.10;99.90
38866;DHT22;62686;48.984;8.394;2023-08-20T05:31:26;21.30;99.90
38866;DHT22;62686;48.984;8.394;2023-08-20T05:33:55;21.60;99.90
38866;DHT22;62686;48.984;8.394;2023-08-20T05:36:23;21.90;99.90
38866;DHT22;62686;48.984;8.394;2023-08-20T05:38:53;22.30;99.90
38866;DHT22;62686;48.984;8.394;2023-08-20T05:41:21;22.70;99.90
38866;DHT22;62686;48.984;8.394;2023-08-20T05:43:50;23.30;99.90
38866;DHT22;62686;48.984;8.394;2023-08-20T05:46:18;24.10;99.90
38866;DHT22;62686;48.984;8.394;2023-08-20T05:48:47;24.90;99.90
38866;DHT22;62686;48.984;8.394;2023-08-20T05:51:15;25.50;99.90
38866;DHT22;62686;48.984;8.394;2023-08-20T05:53:43;25.60;99.90
38866;DHT22;62686;48.984;8.394;2023-08-20T05:56:13;25.50;99.90
38866;DHT22;62686;48.984;8.394;2023-08-20T05:58:41;25.30;99.90
38866;DHT22;62686;48.984;8.394;2023-08-20T06:01:11;25.20;99.90
38866;DHT22;62686;48.984;8.394;2023-08-20T06:03:39;25.10;99.90
38866;DHT22;62686;48.984;8.394;2023-08-20T06:06:07;25.00;99.90
38866;DHT22;62686;48.984;8.394;2023-08-20T06:08:35;24.90;99.90
38866;DHT22;62686;48.984;8.394;2023-08-20T06:11:04;24.80;99.90
38866;DHT22;62686;48.984;8.394;2023-08-20T06:13:33;24.70;99.90
38866;DHT22;62686;48.984;8.394;2023-08-20T06:16:01;24.80;99.90
38866;DHT22;62686;48.984;8.394;2023-08-20T06:18:29;24.90;99.90
38866;DHT22;62686;48.984;8.394;2023-08-20T06:20:58;25.10;99.90
38866;DHT22;62686;48.984;8.394;2023-08-20T06:23:26;25.20;99.90
38866;DHT22;62686;48.984;8.394;2023-08-20T06:26:02;25.20;99.90
38866;DHT22;62686;48.984;8.394;2023-08-20T06:28:30;25.10;99.90
38866;DHT22;62686;48.984;8.394;2023-08-20T06:31:00;25.00;99.90
38866;DHT22;62686;48.984;8.394;2023-08-20T06:33:28;25.20;99.90
38866;DHT22;62686;48.984;8.394;2023-08-20T06:35:57;25.30;99.90
38866;DHT22;62686;48.984;8.394;2023-08-20T06:38:25;25.30;99.90
38866;DHT22;62686;48.984;8.394;2023-08-20T06:40:53;26.40;99.90
38866;DHT22;62686;48.984;8.394;2023-08-20T06:43:21;28.00;99.90
38866;DHT22;62686;48.984;8.394;2023-08-20T06:45:49;29.30;99.90
38866;DHT22;62686;48.984;8.394;2023-08-20T06:48:20;31.00;99.90
38866;DHT22;62686;48.984;8.394;2023-08-20T06:50:51;32.60;99.90
38866;DHT22;62686;48.984;8.394;2023-08-20T06:53:19;33.40;99.90
38866;DHT22;62686;48.984;8.394;2023-08-20T06:55:47;34.20;99.90
38866;DHT22;62686;48.984;8.394;2023-08-20T06:58:16;34.70;99.90
38866;DHT22;62686;48.984;8.394;2023-08-20T07:00:44;35.30;99.90
38866;DHT22;62686;48.984;8.394;2023-08-20T07:03:12;35.50;99.90
38866;DHT22;62686;48.984;8.394;2023-08-20T07:05:42;35.60;99.90
38866;DHT22;62686;48.984;8.394;2023-08-20T07:08:10;35.60;99.90
38866;DHT22;62686;48.984;8.394;2023-08-20T07:10:38;35.80;99.90
38866;DHT22;62686;48.984;8.394;2023-08-20T07:13:07;35.00;99.90
38866;DHT22;62686;48.984;8.394;2023-08-20T07:15:35;34.40;99.90
38866;DHT22;62686;48.984;8.394;2023-08-20T07:18:03;34.60;99.90
38866;DHT22;62686;48.984;8.394;2023-08-20T07:20:31;34.90;99.90
38866;DHT22;62686;48.984;8.394;2023-08-20T07:23:01;35.60;99.90
38866;DHT22;62686;48.984;8.394;2023-08-20T07:25:30;36.00;99.90
38866;DHT22;62686;48.984;8.394;2023-08-20T07:27:59;35.10;99.90
38866;DHT22;62686;48.984;8.394;2023-08-20T07:30:27;34.60;99.90
38866;DHT22;62686;48.984;8.394;2023-08-20T07:32:55;33.60;99.90
38866;DHT22;62686;48.984;8.394;2023-08-20T07:35:23;33.50;99.90
38866;DHT22;62686;48.984;8.394;2023-08-20T07:37:51;33.50;99.90
38866;DHT22;62686;48.984;8.394;2023-08-20T07:40:21;33.90;99.90
38866;DHT22;62686;48.984;8.394;2023-08-20T07:42:50;34.90;99.90
38866;DHT22;62686;48.984;8.394;2023-08-20T07:45:18;35.60;99.90
38866;DHT22;62686;48.984;8.394;2023-08-20T07:47:46;36.30;99.90
38866;DHT22;62686;48.984;8.394;2023-08-20T07:50:14;36.90;99.90
38866;DHT22;62686;48.984;8.394;2023-08-20T07:52:43;37.40;99.90
38866;DHT22;62686;48.984;8.394;2023-08-20T07:55:11;38.10;99.90
38866;DHT22;62686;48.984;8.394;2023-08-20T07:57:41;38.00;99.90
38866;DHT22;62686;48.984;8.394;2023-08-20T08:00:10;39.10;99.90
38866;DHT22;62686;48.984;8.394;2023-08-20T08:02:39;39.60;99.90
38866;DHT22;62686;48.984;8.394;2023-08-20T08:05:08;40.40;97.30
38866;DHT22;62686;48.984;8.394;2023-08-20T08:07:36;40.20;97.30
38866;DHT22;62686;48.984;8.394;2023-08-20T08:10:05;40.10;96.10
38866;DHT22;62686;48.984;8.394;2023-08-20T08:12:33;39.40;97.00
38866;DHT22;62686;48.984;8.394;2023-08-20T08:15:03;39.30;97.20
38866;DHT22;62686;48.984;8.394;2023-08-20T08:17:31;39.60;97.70
38866;DHT22;62686;48.984;8.394;2023-08-20T08:20:00;39.50;95.20
38866;DHT22;62686;48.984;8.394;2023-08-20T08:22:28;39.50;96.40
38866;DHT22;62686;48.984;8.394;2023-08-20T08:24:56;39.90;96.90
38866;DHT22;62686;48.984;8.394;2023-08-20T08:27:24;39.80;95.60
38866;DHT22;62686;48.984;8.394;2023-08-20T08:29:52;40.00;94.90
38866;DHT22;62686;48.984;8.394;2023-08-20T08:32:22;40.00;96.60
38866;DHT22;62686;48.984;8.394;2023-08-20T08:34:50;40.10;94.60
38866;DHT22;62686;48.984;8.394;2023-08-20T08:37:18;39.90;95.50
38866;DHT22;62686;48.984;8.394;2023-08-20T08:39:47;40.00;95.40
38866;DHT22;62686;48.984;8.394;2023-08-20T08:42:16;40.00;94.20
38866;DHT22;62686;48.984;8.394;2023-08-20T08:44:48;39.90;94.90
38866;DHT22;62686;48.984;8.394;2023-08-20T08:47:18;40.00;95.00
38866;DHT22;62686;48.984;8.394;2023-08-20T08:49:50;39.80;94.10
38866;DHT22;62686;48.984;8.394;2023-08-20T08:52:18;39.30;94.70
38866;DHT22;62686;48.984;8.394;2023-08-20T08:54:47;39.60;96.60
38866;DHT22;62686;48.984;8.394;2023-08-20T08:57:16;39.90;95.40
38866;DHT22;62686;48.984;8.394;2023-08-20T08:59:45;39.80;95.90
38866;DHT22;62686;48.984;8.394;2023-08-20T09:02:14;40.30;94.80
38866;DHT22;62686;48.984;8.394;2023-08-20T09:04:45;40.70;92.70
38866;DHT22;62686;48.984;8.394;2023-08-20T09:07:15;40.80;93.60
38866;DHT22;62686;48.984;8.394;2023-08-20T09:09:47;41.40;91.50
38866;DHT22;62686;48.984;8.394;2023-08-20T09:12:17;41.50;93.20
38866;DHT22;62686;48.984;8.394;2023-08-20T09:14:46;41.20;92.50
38866;DHT22;62686;48.984;8.394;2023-08-20T09:17:15;41.00;93.00
38866;DHT22;62686;48.984;8.394;2023-08-20T09:19:45;40.70;92.30
38866;DHT22;62686;48.984;8.394;2023-08-20T09:22:15;40.90;93.10
38866;DHT22;62686;48.984;8.394;2023-08-20T09:24:45;40.80;93.40
38866;DHT22;62686;48.984;8.394;2023-08-20T09:27:14;40.80;93.10
38866;DHT22;62686;48.984;8.394;2023-08-20T09:29:47;40.00;92.00
38866;DHT22;62686;48.984;8.394;2023-08-20T09:32:16;39.00;93.60
38866;DHT22;62686;48.984;8.394;2023-08-20T09:34:45;37.50;95.10
38866;DHT22;62686;48.984;8.394;2023-08-20T09:37:17;36.20;97.00
38866;DHT22;62686;48.984;8.394;2023-08-20T09:39:45;36.30;99.30
38866;DHT22;62686;48.984;8.394;2023-08-20T09:42:14;36.90;97.40
38866;DHT22;62686;48.984;8.394;2023-08-20T09:44:43;37.20;96.70
38866;DHT22;62686;48.984;8.394;2023-08-20T09:47:14;37.20;97.20
38866;DHT22;62686;48.984;8.394;2023-08-20T09:49:43;36.60;96.60
38866;DHT22;62686;48.984;8.394;2023-08-20T09:52:15;35.90;99.10
38866;DHT22;62686;48.984;8.394;2023-08-20T09:55:00;35.60;98.60
38866;DHT22;62686;48.984;8.394;2023-08-20T09:57:33;35.20;99.20
38866;DHT22;62686;48.984;8.394;2023-08-20T10:00:03;34.50;99.90
38866;DHT22;62686;48.984;8.394;2023-08-20T10:02:33;35.30;99.90
38866;DHT22;62686;48.984;8.394;2023-08-20T10:05:02;36.90;99.20
38866;DHT22;62686;48.984;8.394;2023-08-20T10:07:30;37.80;98.40
38866;DHT22;62686;48.984;8.394;2023-08-20T10:10:03;37.80;97.60
38866;DHT22;62686;48.984;8.394;2023-08-20T10:12:32;37.30;99.90
38866;DHT22;62686;48.984;8.394;2023-08-20T10:15:00;36.10;99.60
38866;DHT22;62686;48.984;8.394;2023-08-20T10:17:30;35.30;99.30
38866;DHT22;62686;48.984;8.394;2023-08-20T10:19:59;34.70;99.90
38866;DHT22;62686;48.984;8.394;2023-08-20T10:22:32;34.00;99.90
38866;DHT22;62686;48.984;8.394;2023-08-20T10:25:05;33.60;99.90
38866;DHT22;62686;48.984;8.394;2023-08-20T10:27:35;33.30;99.90
38866;DHT22;62686;48.984;8.394;2023-08-20T10:30:08;33.20;99.90
38866;DHT22;62686;48.984;8.394;2023-08-20T10:32:47;33.10;99.90
38866;DHT22;62686;48.984;8.394;2023-08-20T10:35:17;33.00;99.90
38866;DHT22;62686;48.984;8.394;2023-08-20T10:38:02;33.00;99.90
38866;DHT22;62686;48.984;8.394;2023-08-20T10:40:51;33.00;99.90
38866;DHT22;62686;48.984;8.394;2023-08-20T10:43:29;32.70;99.90
38866;DHT22;62686;48.984;8.394;2023-08-20T10:46:16;32.50;99.90
38866;DHT22;62686;48.984;8.394;2023-08-20T10:48:47;32.70;99.90
38866;DHT22;62686;48.984;8.394;2023-08-20T10:51:17;32.90;99.90
38866;DHT22;62686;48.984;8.394;2023-08-20T10:54:02;33.00;99.90
38866;DHT22;62686;48.984;8.394;2023-08-20T10:56:46;33.00;99.90
38866;DHT22;62686;48.984;8.394;2023-08-20T10:59:17;33.10;99.90
38866;DHT22;62686;48.984;8.394;2023-08-20T11:01:46;33.10;99.90
38866;DHT22;62686;48.984;8.394;2023-08-20T11:04:19;33.10;99.90
38866;DHT22;62686;48.984;8.394;2023-08-20T11:06:52;33.00;99.90
38866;DHT22;62686;48.984;8.394;2023-08-20T11:09:38;33.00;99.90
38866;DHT22;62686;48.984;8.394;2023-08-20T11:12:10;33.20;99.90
38866;DHT22;62686;48.984;8.394;2023-08-20T11:14:38;33.30;99.90
38866;DHT22;62686;48.984;8.394;2023-08-20T11:17:11;33.50;99.90
38866;DHT22;62686;48.984;8.394;2023-08-20T11:19:40;33.70;99.90
38866;DHT22;62686;48.984;8.394;2023-08-20T11:22:10;33.90;99.90
38866;DHT22;62686;48.984;8.394;2023-08-20T11:24:42;34.40;99.90
38866;DHT22;62686;48.984;8.394;2023-08-20T11:27:12;35.50;99.90
38866;DHT22;62686;48.984;8.394;2023-08-20T11:29:42;36.90;99.90
38866;DHT22;62686;48.984;8.394;2023-08-20T11:32:10;37.40;98.80
38866;DHT22;62686;48.984;8.394;2023-08-20T11:34:38;37.20;97.90
38866;DHT22;62686;48.984;8.394;2023-08-20T11:37:06;37.10;98.20
38866;DHT22;62686;48.984;8.394;2023-08-20T11:39:36;37.10;97.70
38866;DHT22;62686;48.984;8.394;2023-08-20T11:42:05;37.20;97.50
38866;DHT22;62686;48.984;8.394;2023-08-20T11:44:45;37.10;98.60
38866;DHT22;62686;48.984;8.394;2023-08-20T11:47:14;37.40;97.00
38866;DHT22;62686;48.984;8.394;2023-08-20T11:49:42;38.00;97.00
38866;DHT22;62686;48.984;8.394;2023-08-20T11:55:14;38.70;96.50
38866;DHT22;62686;48.984;8.394;2023-08-20T11:57:51;39.70;94.60
38866;DHT22;62686;48.984;8.394;2023-08-20T12:00:28;41.00;94.80
38866;DHT22;62686;48.984;8.394;2023-08-20T12:02:57;42.10;92.40
38866;DHT22;62686;48.984;8.394;2023-08-20T12:05:29;42.90;90.10
38866;DHT22;62686;48.984;8.394;2023-08-20T12:07:59;43.60;90.00
38866;DHT22;62686;48.984;8.394;2023-08-20T12:10:29;43.50;86.30
38866;DHT22;62686;48.984;8.394;2023-08-20T12:12:58;43.30;88.50
38866;DHT22;62686;48.984;8.394;2023-08-20T12:15:27;43.50;84.30
38866;DHT22;62686;48.984;8.394;2023-08-20T12:18:00;43.30;82.60
38866;DHT22;62686;48.984;8.394;2023-08-20T12:20:33;44.10;84.50
38866;DHT22;62686;48.984;8.394;2023-08-20T12:23:05;44.20;82.20
38866;DHT22;62686;48.984;8.394;2023-08-20T12:25:40;44.20;81.80
38866;DHT22;62686;48.984;8.394;2023-08-20T12:28:09;44.30;81.10
38866;DHT22;62686;48.984;8.394;2023-08-20T12:30:39;44.40;78.70
38866;DHT22;62686;48.984;8.394;2023-08-20T12:33:08;44.40;77.80
38866;DHT22;62686;48.984;8.394;2023-08-20T12:35:36;44.50;76.10
38866;DHT22;62686;48.984;8.394;2023-08-20T12:38:04;44.00;77.00
38866;DHT22;62686;48.984;8.394;2023-08-20T12:40:34;43.60;78.40
38866;DHT22;62686;48.984;8.394;2023-08-20T12:43:02;43.10;78.70
38866;DHT22;62686;48.984;8.394;2023-08-20T12:45:31;43.30;78.60
38866;DHT22;62686;48.984;8.394;2023-08-20T12:48:00;43.10;78.00
38866;DHT22;62686;48.984;8.394;2023-08-20T12:50:31;43.20;79.20
38866;DHT22;62686;48.984;8.394;2023-08-20T12:53:00;43.10;81.10
38866;DHT22;62686;48.984;8.394;2023-08-20T12:55:28;43.20;81.00
38866;DHT22;62686;48.984;8.394;2023-08-20T12:57:58;43.40;79.70
38866;DHT22;62686;48.984;8.394;2023-08-20T13:00:27;43.30;79.70
38866;DHT22;62686;48.984;8.394;2023-08-20T13:02:56;43.50;80.60
38866;DHT22;62686;48.984;8.394;2023-08-20T13:05:27;43.20;77.60
38866;DHT22;62686;48.984;8.394;2023-08-20T13:07:56;43.20;81.10
38866;DHT22;62686;48.984;8.394;2023-08-20T13:10:25;43.20;78.00
38866;DHT22;62686;48.984;8.394;2023-08-20T13:12:58;43.20;78.60
38866;DHT22;62686;48.984;8.394;2023-08-20T13:15:28;43.20;77.60
38866;DHT22;62686;48.984;8.394;2023-08-20T13:21:04;43.50;77.70
38866;DHT22;62686;48.984;8.394;2023-08-20T13:23:33;42.60;79.40
38866;DHT22;62686;48.984;8.394;2023-08-20T13:26:01;42.30;79.50
38866;DHT22;62686;48.984;8.394;2023-08-20T13:28:29;42.70;76.40
38866;DHT22;62686;48.984;8.394;2023-08-20T13:30:57;43.20;77.70
38866;DHT22;62686;48.984;8.394;2023-08-20T13:33:26;43.50;76.20
38866;DHT22;62686;48.984;8.394;2023-08-20T13:35:54;43.30;79.40
38866;DHT22;62686;48.984;8.394;2023-08-20T13:38:24;42.70;75.50
38866;DHT22;62686;48.984;8.394;2023-08-20T13:40:53;42.70;75.90
38866;DHT22;62686;48.984;8.394;2023-08-20T13:43:22;42.30;77.30
38866;DHT22;62686;48.984;8.394;2023-08-20T13:45:51;41.50;75.40
38866;DHT22;62686;48.984;8.394;2023-08-20T13:48:19;40.90;76.20
38866;DHT22;62686;48.984;8.394;2023-08-20T13:50:47;40.60;78.30
38866;DHT22;62686;48.984;8.394;2023-08-20T13:53:16;40.20;80.60
38866;DHT22;62686;48.984;8.394;2023-08-20T13:55:45;39.20;82.20
38866;DHT22;62686;48.984;8.394;2023-08-20T15:48:54;34.20;85.30
38866;DHT22;62686;48.984;8.394;2023-08-20T15:51:38;34.10;88.30
38866;DHT22;62686;48.984;8.394;2023-08-20T15:54:07;33.90;90.00
38866;DHT22;62686;48.984;8.394;2023-08-20T15:56:37;33.80;89.90
38866;DHT22;62686;48.984;8.394;2023-08-20T15:59:07;33.70;89.20
38866;DHT22;62686;48.984;8.394;2023-08-20T16:01:39;33.50;89.60
38866;DHT22;62686;48.984;8.394;2023-08-20T16:04:09;33.40;88.50
38866;DHT22;62686;48.984;8.394;2023-08-20T16:06:37;33.30;89.50
38866;DHT22;62686;48.984;8.394;2023-08-20T16:09:07;33.10;90.50
38866;DHT22;62686;48.984;8.394;2023-08-20T16:11:40;32.90;90.20
38866;DHT22;62686;48.984;8.394;2023-08-20T16:16:56;32.70;90.80
38866;DHT22;62686;48.984;8.394;2023-08-20T16:22:30;32.50;91.20
38866;DHT22;62686;48.984;8.394;2023-08-20T16:24:58;32.40;91.20
38866;DHT22;62686;48.984;8.394;2023-08-20T16:27:27;32.30;91.70
38866;DHT22;62686;48.984;8.394;2023-08-20T16:29:55;32.30;92.80
38866;DHT22;62686;48.984;8.394;2023-08-20T16:32:24;32.20;91.60
38866;DHT22;62686;48.984;8.394;2023-08-20T16:34:53;32.10;92.70
38866;DHT22;62686;48.984;8.394;2023-08-20T16:37:21;32.10;92.50
38866;DHT22;62686;48.984;8.394;2023-08-20T16:39:51;32.10;92.90
38866;DHT22;62686;48.984;8.394;2023-08-20T16:42:19;31.90;93.10
38866;DHT22;62686;48.984;8.394;2023-08-20T16:44:47;31.80;93.40
38866;DHT22;62686;48.984;8.394;2023-08-20T16:47:16;31.70;93.40
38866;DHT22;62686;48.984;8.394;2023-08-20T16:49:48;31.70;94.50
38866;DHT22;62686;48.984;8.394;2023-08-20T16:52:16;31.50;94.00
38866;DHT22;62686;48.984;8.394;2023-08-20T16:54:46;31.50;94.30
38866;DHT22;62686;48.984;8.394;2023-08-20T17:02:49;31.20;95.60
38866;DHT22;62686;48.984;8.394;2023-08-20T17:05:17;31.10;94.60
38866;DHT22;62686;48.984;8.394;2023-08-20T17:07:46;31.10;95.10
38866;DHT22;62686;48.984;8.394;2023-08-20T17:10:15;31.00;95.20
38866;DHT22;62686;48.984;8.394;2023-08-20T17:12:44;30.90;96.90
38866;DHT22;62686;48.984;8.394;2023-08-20T17:15:13;30.80;96.00
38866;DHT22;62686;48.984;8.394;2023-08-20T17:17:41;30.60;95.70
38866;DHT22;62686;48.984;8.394;2023-08-20T17:20:11;30.60;96.50
38866;DHT22;62686;48.984;8.394;2023-08-20T17:22:40;30.50;96.20
38866;DHT22;62686;48.984;8.394;2023-08-20T17:25:09;30.50;96.40
38866;DHT22;62686;48.984;8.394;2023-08-20T17:27:38;30.40;97.00
38866;DHT22;62686;48.984;8.394;2023-08-20T17:30:07;30.30;96.60
38866;DHT22;62686;48.984;8.394;2023-08-20T17:32:38;30.40;97.00
38866;DHT22;62686;48.984;8.394;2023-08-20T17:35:08;30.30;97.20
38866;DHT22;62686;48.984;8.394;2023-08-20T17:37:39;30.20;97.90
38866;DHT22;62686;48.984;8.394;2023-08-20T17:40:08;30.10;97.60
38866;DHT22;62686;48.984;8.394;2023-08-20T17:42:37;30.00;97.70
38866;DHT22;62686;48.984;8.394;2023-08-20T17:45:06;29.90;97.60
38866;DHT22;62686;48.984;8.394;2023-08-20T17:47:35;29.90;97.80
38866;DHT22;62686;48.984;8.394;2023-08-20T17:50:04;29.80;97.60
38866;DHT22;62686;48.984;8.394;2023-08-20T17:52:38;29.70;97.80
38866;DHT22;62686;48.984;8.394;2023-08-20T17:55:07;29.70;98.00
38866;DHT22;62686;48.984;8.394;2023-08-20T17:57:35;29.50;98.60
38866;DHT22;62686;48.984;8.394;2023-08-20T18:00:05;29.40;99.50
38866;DHT22;62686;48.984;8.394;2023-08-20T18:02:37;29.20;99.90
38866;DHT22;62686;48.984;8.394;2023-08-20T18:05:31;29.10;99.90
38866;DHT22;62686;48.984;8.394;2023-08-20T18:20:40;28.30;99.90
38866;DHT22;62686;48.984;8.394;2023-08-20T18:23:10;28.10;99.90
38866;DHT22;62686;48.984;8.394;2023-08-20T18:37:08;27.50;99.90
38866;DHT22;62686;48.984;8.394;2023-08-20T18:39:36;27.30;99.90
38866;DHT22;62686;48.984;8.394;2023-08-20T18:42:05;27.20;99.90
38866;DHT22;62686;48.984;8.394;2023-08-20T18:44:33;27.00;99.90
38866;DHT22;62686;48.984;8.394;2023-08-20T18:47:02;26.80;99.90
38866;DHT22;62686;48.984;8.394;2023-08-20T18:49:31;26.60;99.90
38866;DHT22;62686;48.984;8.394;2023-08-20T18:51:59;26.40;99.90
38866;DHT22;62686;48.984;8.394;2023-08-20T18:54:29;26.30;99.90
38866;DHT22;62686;48.984;8.394;2023-08-20T18:56:58;26.20;99.90
38866;DHT22;62686;48.984;8.394;2023-08-20T18:59:26;26.00;99.90
38866;DHT22;62686;48.984;8.394;2023-08-20T19:01:55;25.80;99.90
38866;DHT22;62686;48.984;8.394;2023-08-20T19:04:23;25.70;99.90
38866;DHT22;62686;48.984;8.394;2023-08-20T19:06:52;25.70;99.90
38866;DHT22;62686;48.984;8.394;2023-08-20T19:09:20;25.70;99.90
38866;DHT22;62686;48.984;8.394;2023-08-20T20:09:32;23.70;99.90
38866;DHT22;62686;48.984;8.394;2023-08-20T20:21:11;23.70;99.90
38866;DHT22;62686;48.984;8.394;2023-08-20T20:32:58;23.50;99.90
38866;DHT22;62686;48.984;8.394;2023-08-20T20:35:29;23.40;99.90
38866;DHT22;62686;48.984;8.394;2023-08-20T20:37:57;23.40;99.90
38866;DHT22;62686;48.984;8.394;2023-08-20T20:40:25;23.30;99.90
38866;DHT22;62686;48.984;8.394;2023-08-20T20:42:55;23.30;99.90
38866;DHT22;62686;48.984;8.394;2023-08-20T20:45:23;23.20;99.90
38866;DHT22;62686;48.984;8.394;2023-08-20T20:47:51;23.20;99.90
38866;DHT22;62686;48.984;8.394;2023-08-20T20:50:20;23.20;99.90
38866;DHT22;62686;48.984;8.394;2023-08-20T20:52:48;23.20;99.90
38866;DHT22;62686;48.984;8.394;2023-08-20T20:55:17;23.00;99.90
38866;DHT22;62686;48.984;8.394;2023-08-20T20:57:45;23.00;99.90
38866;DHT22;62686;48.984;8.394;2023-08-20T21:00:16;22.90;99.90